Ardmore, OK

4:18 AM CDT on September 23, 2014 (GMT -0500)
Ardmore Municipal | Change Station
CLOSE
Current Station
Airport
Location: Ardmore,
Elevation: 761 ft
Nearby Weather Stations

Elev 761 ft 34.30 °N, 97.01 °W | Updated 23 minutes ago

Clear
Clear
57 °F
Feels Like 57 °F
N
0
Wind Variable Wind from North

Today
High -- | Low -- °F
--% Chance of Precip.
Yesterday
High -- | Low -- °F
Precip. -- in
7:17 AM 7:23 PM
Waning Crescent, 1% visible
Pressure 30.18 in
Visibility 10.0 miles
Clouds Clear
Dew Point 55 °F
Humidity 93%
Rainfall 0.00 in
Snow Depth Not available.
UV 0 out of 12
Pollen 10.50 out of 12
Air Quality Not available.
Flu Activity Not available.
METAR KADM 230855Z AUTO 00000KT 10SM CLR 14/13 A3018 RMK AO2 T01380127

More Conditions Fewer Conditions

Pressure 30.18 in
Visibility 10.0 miles
Clouds Clear
Dew Point 55 °F
Humidity 93%
Rainfall 0.00 in
Snow Depth Not available.
UV 0 out of 12
Pollen 10.50 out of 12
Air Quality Not available.
Flu Activity Not available.
METAR KADM 230855Z AUTO 00000KT 10SM CLR 14/13 A3018 RMK AO2 T01380127

More Conditions Fewer Conditions

10-Day Weather Forecast

Almanac

Astronomy

Sep. 23, 2014 Rise Set
Actual Time 7:17 AM CDT 7:23 PM CDT
Civil Twilight 6:52 AM CDT 7:48 PM CDT
Nautical Twilight 6:23 AM CDT 8:17 PM CDT
Astronomical Twilight 5:53 AM CDT 8:47 PM CDT
Moon 6:43 AM CDT 7:04 PM CDT
Length of Visible Light 12h 56m
Length of Day
12h 06m
Tomorrow will be 2m 7s shorter.
Waning Crescent, 1% of the Moon is Illuminated
Today
Waning Crescent
Sep 24
New
Oct 1
First Quarter
Oct 8
Full
Oct 15
Last Quarter

Today's Extremes

State Highs State Lows

Community

WunderPhotos

Upload Photos

1,755,643 photos uploaded!

Nearby

Snow Depth

Station Depth Elevation
No new snow has been reported.

Earthquake Activity

City Distance Mag. Time & Date
Boley, Oklahoma 96 miles 3.4 2:58 AM CDT
2014-09-23
Bray, Oklahoma 38 miles 3.6 2:28 PM CDT
2014-09-22
Luther, Oklahoma 104 miles 2.7 4:47 PM CDT
2014-09-19
Minimum magnitude displayed is 2.5.

Coastal Water Temperatures

Place Temperature
No Stations Reporting

Nearby Weather Stations